Home > Products > Valid Products > TAF

000
FTUS43 KILX 260500
TAFCMI
TAF
KCMI 260525Z 2606/2706 11006KT P6SM SCT250
     FM261500 11008KT P6SM SCT070 BKN150
     FM262000 11007KT P6SM VCSH BKN040
     FM270100 03006KT P6SM BKN040=



000
FTUS43 KILX 260500
TAFBMI
TAF
KBMI 260525Z 2606/2706 14006KT P6SM SCT250
     FM261500 13008KT P6SM SCT070 BKN150
     FM262000 12007KT P6SM VCSH BKN040
     FM270100 04006KT P6SM BKN040=



000
FTUS43 KILX 260500
TAFSPI
TAF
KSPI 260525Z 2606/2706 14005KT P6SM SCT250
     FM261200 14007KT P6SM SCT070 BKN150
     FM261700 14008KT P6SM VCSH BKN070
     FM262000 10006KT 4SM -RASN BKN020 OVC050
     FM270200 04004KT 3SM -SN BKN015 OVC040=



000
FTUS43 KILX 260500
TAFPIA
TAF
KPIA 260525Z 2606/2706 12004KT P6SM SCT250
     FM261200 13007KT P6SM SCT070 BKN150
     FM261700 13008KT P6SM VCSH BKN070
     FM262100 10006KT 4SM -SN BKN020 OVC050
     FM270100 04004KT P6SM VCSH BKN020=



000
FTUS43 KILX 260500
TAFDEC
TAF
KDEC 260525Z 2606/2706 13004KT P6SM SCT250
     FM261200 13007KT P6SM SCT070 BKN150
     FM261700 13010KT P6SM VCSH BKN070
     FM262100 10006KT 4SM -SNRA BKN020 OVC050
     FM270100 04005KT P6SM VCSH BKN020=



000
FTUS43 KILX 260000 RRA
TAFDEC
TAF
KDEC 260012Z 2600/2624 12004KT P6SM SCT250
     FM261200 14007KT P6SM SCT070 BKN150
     FM261800 14008KT P6SM VCSH BKN070
     FM262200 10006KT P6SM VCSH BKN020 OVC050=



000
FTUS43 KILX 260000 RRA
TAFPIA
TAF
KPIA 260012Z 2600/2624 VRB04KT P6SM SKC
     FM260300 14004KT P6SM SCT250
     FM261000 14007KT P6SM SCT070 BKN150
     FM261700 14008KT P6SM VCSH BKN070
     FM262100 10006KT P6SM VCSH BKN020 OVC050=



000
FTUS43 KILX 260000 RRA
TAFCMI
TAF
KCMI 260012Z 2600/2624 VRB04KT P6SM OVC018
     FM260200 VRB04KT P6SM SCT025
     FM260600 14004KT P6SM SCT250
     FM261300 13009KT P6SM SCT070 BKN150
     FM262100 10007KT P6SM VCSH BKN070=



000
FTUS43 KILX 260000 RRA
TAFSPI
TAF
KSPI 260012Z 2600/2624 13004KT P6SM SCT250
     FM261000 14007KT P6SM SCT070 BKN150
     FM261700 14008KT P6SM VCSH BKN070
     FM262100 10006KT P6SM VCSH BKN020 OVC050=



000
FTUS43 KILX 260000 RRA
TAFBMI
TAF
KBMI 260012Z 2600/2624 VRB04KT P6SM SCT025
     FM260500 14005KT P6SM SCT250
     FM261200 12008KT P6SM SCT070 BKN150
     FM261800 10007KT P6SM VCSH BKN070=



000
FTUS43 KILX 251700
TAFDEC
TAF
KDEC 251728Z 2518/2618 29009KT P6SM OVC018
     FM252300 VRB03KT P6SM SCT025
     FM260300 15004KT P6SM SCT250
     FM261200 14005KT P6SM SCT150 BKN250=



000
FTUS43 KILX 251700
TAFCMI
TAF
KCMI 251728Z 2518/2618 27009KT P6SM OVC018
     FM260100 14004KT P6SM SCT250
     FM261300 13009KT P6SM SCT150 BKN250=



000
FTUS43 KILX 251700
TAFBMI
TAF
KBMI 251728Z 2518/2618 26009KT P6SM OVC018
     FM260000 VRB04KT P6SM SCT025
     FM260400 15005KT P6SM SCT250
     FM261200 14008KT P6SM SCT150 BKN250=



000
FTUS43 KILX 251700
TAFSPI
TAF
KSPI 251728Z 2518/2618 28007KT P6SM OVC020
     FM252000 26004KT P6SM SCT025
     FM260000 15004KT P6SM SCT250
     FM261100 15007KT P6SM SCT150 BKN250=



000
FTUS43 KILX 251700
TAFPIA
TAF
KPIA 251728Z 2518/2618 28009KT P6SM OVC018
     FM252200 VRB05KT P6SM SCT025
     FM260200 14004KT P6SM SCT250
     FM261000 14007KT P6SM SCT150 BKN250
     FM261700 14008KT P6SM BKN070=



000
FTUS43 KILX 251300 AAA
TAFCMI
TAF AMD
KCMI 251352Z 2514/2612 28012KT P6SM OVC018
     FM252200 26006KT P6SM SCT025
     FM260100 VRB04KT P6SM SCT250
     FM261000 14005KT P6SM SCT150 BKN250=



000
FTUS43 KILX 251300 AAA
TAFSPI
TAF AMD
KSPI 251352Z 2514/2612 29010KT P6SM OVC020
     FM251900 26006KT P6SM SCT025
     FM260000 VRB04KT P6SM SCT250
     FM260700 14005KT P6SM SCT150 BKN250=



000
FTUS43 KILX 251300 AAA
TAFDEC
TAF AMD
KDEC 251352Z 2514/2612 29012KT P6SM OVC018
     FM252100 26006KT P6SM SCT025
     FM260100 VRB04KT P6SM SCT250
     FM260900 14005KT P6SM SCT150 BKN250=



000
FTUS43 KILX 251300 AAA
TAFBMI
TAF AMD
KBMI 251352Z 2514/2612 29014KT P6SM OVC018
      TEMPO 2515/2517 SCT018
     FM252200 25008KT P6SM SCT025
     FM260100 VRB04KT P6SM SCT250
     FM260900 14008KT P6SM SCT150 BKN250=



000
FTUS43 KILX 251300 AAA
TAFPIA
TAF AMD
KPIA 251352Z 2514/2612 29010KT P6SM OVC018
      TEMPO 2514/2516 SCT018
     FM252000 26006KT P6SM SCT025
     FM260000 VRB04KT P6SM SCT250
     FM260700 14005KT P6SM SCT150 BKN250=



000
FTUS43 KILX 251100
TAFPIA
TAF
KPIA 251123Z 2512/2612 29010G18KT P6SM OVC020
     FM251800 26006KT P6SM SCT025
     FM260000 VRB04KT P6SM SCT250
     FM260700 14005KT P6SM SCT150 BKN250=



000
FTUS43 KILX 251100
TAFSPI
TAF
KSPI 251123Z 2512/2612 29010G18KT P6SM OVC020
     FM251800 26006KT P6SM SCT025
     FM260000 VRB04KT P6SM SCT250
     FM260700 14005KT P6SM SCT150 BKN250=



000
FTUS43 KILX 251100
TAFCMI
TAF
KCMI 251123Z 2512/2612 28012KT P6SM OVC018
     FM252100 26006KT P6SM SCT025
     FM260100 VRB04KT P6SM SCT250
     FM261000 14005KT P6SM SCT150 BKN250=



000
FTUS43 KILX 251100
TAFBMI
TAF
KBMI 251123Z 2512/2612 28012KT P6SM OVC018
     FM252000 25008KT P6SM SCT025
     FM260100 VRB04KT P6SM SCT250
     FM260900 14008KT P6SM SCT150 BKN250=



000
FTUS43 KILX 251100
TAFDEC
TAF
KDEC 251123Z 2512/2612 29010G18KT P6SM OVC018
     FM252000 26006KT P6SM SCT025
     FM260100 VRB04KT P6SM SCT250
     FM260900 14005KT P6SM SCT150 BKN250=



000
FTUS43 KILX 250500
TAFBMI
TAF
KBMI 250530Z 2506/2606 26012G18KT P6SM -SN OVC015
     FM250900 27012KT P6SM OVC020
     FM251700 28012KT P6SM SCT025 BKN035
     FM260000 23003KT P6SM SKC=



000
FTUS43 KILX 250500
TAFSPI
TAF
KSPI 250530Z 2506/2606 27012KT P6SM OVC025
     FM250800 27009KT P6SM OVC025
     FM251400 29008KT P6SM SCT025 BKN040
     FM260000 VRB03KT P6SM SKC=



000
FTUS43 KILX 250500
TAFPIA
TAF
KPIA 250530Z 2506/2606 28012G18KT P6SM -SN OVC025
     FM250900 28010KT P6SM OVC025
     FM251500 29008KT P6SM SCT025 BKN040
     FM260000 22003KT P6SM SKC=



000
FTUS43 KILX 250500
TAFCMI
TAF
KCMI 250530Z 2506/2606 26019KT P6SM OVC025
     FM250900 26012KT P6SM OVC025
     FM251800 27011KT P6SM SCT025 BKN035
     FM260000 24004KT P6SM SKC=



000
FTUS43 KILX 250500
TAFDEC
TAF
KDEC 250530Z 2506/2606 27011G20KT P6SM OVC025
     FM250800 27010KT P6SM OVC025
     FM251500 28009KT P6SM SCT025 BKN040
     FM260000 23003KT P6SM SKC=



000
FTUS43 KILX 250500 AAB
TAFDEC
TAF AMD
KDEC 250512Z 2505/2524 27012G20KT P6SM OVC025
     FM250800 27010KT P6SM BKN025
     FM251500 28009KT P6SM SCT025 BKN040=



000
FTUS43 KILX 250500 AAD
TAFPIA
TAF AMD
KPIA 250511Z 2505/2524 28012G18KT P6SM -SN OVC025
     FM250700 27009KT P6SM BKN025
     FM251500 28008KT P6SM SCT025 BKN040=



000
FTUS43 KILX 250500 AAA
TAFBMI
TAF AMD
KBMI 250511Z 2505/2524 26012G18KT P6SM -SN OVC015
     FM250800 27012KT P6SM BKN020
     FM251600 28012KT P6SM SCT025 BKN035=



000
FTUS43 KILX 250300 AAA
TAFSPI
TAF AMD
KSPI 250315Z 2503/2524 26012KT P6SM -SN OVC035
     FM250500 26012KT P6SM OVC025
     FM250700 27009KT P6SM BKN025
     FM251400 29008KT P6SM SCT025 BKN040=



000
FTUS43 KILX 250300 AAC
TAFPIA
TAF AMD
KPIA 250314Z 2503/2524 27015G25KT P6SM -SN OVC026
      TEMPO 2505/2507 2SM -SN OVC015
     FM250700 27009KT P6SM BKN025
     FM251500 28008KT P6SM SCT025 BKN040=



000
FTUS43 KILX 250200 AAB
TAFPIA
TAF AMD
KPIA 250200Z 2502/2524 27010G18KT P6SM -SN FEW020 OVC035
     FM250400 26011KT P6SM -SN OVC025
     FM250700 27009KT P6SM BKN025
     FM251500 28008KT P6SM SCT025 BKN040=



000
FTUS43 KILX 250100 AAA
TAFCMI
TAF AMD
KCMI 250133Z 2502/2524 25015G24KT P6SM -SN OVC035
     FM250400 25015KT P6SM OVC025
     FM250900 26012KT P6SM BKN025
     FM251700 27011KT P6SM SCT025 BKN035=



000
FTUS43 KILX 250100 AAA
TAFDEC
TAF AMD
KDEC 250128Z 2501/2524 26012KT P6SM -SN OVC025
     FM250400 26010KT P6SM OVC025
     FM250800 27009KT P6SM BKN025
     FM251500 28009KT P6SM SCT025 BKN040=



000
FTUS43 KILX 250100 AAA
TAFPIA
TAF AMD
KPIA 250127Z 2501/2524 27010G22KT P6SM -SN SCT025 OVC030
     FM250300 26011KT P6SM OVC025
     FM250700 27009KT P6SM BKN025
     FM251500 28008KT P6SM SCT025 BKN040=



000
FTUS43 KILX 242300 RRA
TAFDEC
TAF
KDEC 242345Z 2500/2524 25014G23KT P6SM -SN OVC025
     FM250400 26013KT P6SM OVC025
     FM250800 27009KT P6SM BKN025
     FM251500 28009KT P6SM SCT025 BKN040=



000
FTUS43 KILX 242300 RRA
TAFBMI
TAF
KBMI 242345Z 2500/2524 26016G24KT P6SM -FZDZSN BKN015 OVC020
      TEMPO 2500/2503 3SM -SHSN BR OVC010
     FM250300 26015KT P6SM OVC020
     FM250800 27012KT P6SM BKN020
     FM251600 28012KT P6SM SCT025 BKN035=



000
FTUS43 KILX 242300 RRA
TAFPIA
TAF
KPIA 242345Z 2500/2524 26016G25KT P6SM -FZDZSN OVC020
      TEMPO 2500/2502 3SM -SHSN BR OVC015
     FM250200 26011KT P6SM OVC025
     FM250700 27009KT P6SM BKN025
     FM251500 28008KT P6SM SCT025 BKN040=



000
FTUS43 KILX 242300 RRA
TAFCMI
TAF
KCMI 242345Z 2500/2524 25018G26KT P6SM -SN OVC025
     FM250400 25015KT P6SM OVC020
     FM250900 26012KT P6SM BKN025
     FM251700 27011KT P6SM SCT025 BKN035=



000
FTUS43 KILX 242300 RRA
TAFSPI
TAF
KSPI 242345Z 2500/2524 26015KT P6SM -SN OVC035
     FM250200 26012KT P6SM OVC025
     FM250700 27009KT P6SM BKN025
     FM251400 29008KT P6SM SCT025 BKN040=



000
FTUS43 KILX 242200 AAB
TAFPIA
TAF AMD
KPIA 242210Z 2422/2518 26016G25KT P6SM VCSH OVC017
      TEMPO 2422/2501 2SM -SHSN BR BKN010 OVC015
     FM250100 26011KT P6SM OVC025
     FM250700 27009KT P6SM BKN025
     FM251500 28008KT P6SM SCT025 BKN040=



000
FTUS43 KILX 242200 AAB
TAFBMI
TAF AMD
KBMI 242210Z 2422/2518 25020G29KT P6SM VCSH OVC018
      TEMPO 2422/2502 3SM -SHSN BR OVC010
     FM250200 26015KT P6SM OVC020
     FM250800 27012KT P6SM BKN020
     FM251600 28012KT P6SM SCT025 BKN035=



000
FTUS43 KILX 242000 AAA
TAFBMI
TAF AMD
KBMI 242002Z 2420/2518 25020G30KT P6SM VCSH OVC015
      TEMPO 2420/2423 5SM -SHSN BR OVC010
     FM242300 26018G28KT P6SM VCSH OVC015
     FM250200 26015KT P6SM OVC020
     FM250800 27012KT P6SM BKN020
     FM251600 28012KT P6SM SCT025 BKN035=



000
FTUS43 KILX 242000 AAA
TAFPIA
TAF AMD
KPIA 242000Z 2420/2518 26019G28KT P6SM VCSH OVC015
      TEMPO 2420/2423 5SM -SHSN BR BKN010 OVC015
     FM242300 26013G22KT P6SM VCSH OVC020
     FM250100 26011KT P6SM OVC025
     FM250700 27009KT P6SM BKN025
     FM251500 28008KT P6SM SCT025 BKN040=



000
FTUS43 KILX 241700
TAFSPI
TAF
KSPI 241739Z 2418/2518 26022G32KT P6SM VCSH SCT015 OVC025
      TEMPO 2418/2420 6SM -SN BR BKN015 OVC020
     FM242000 26020G30KT P6SM OVC025
      TEMPO 2420/2422 5SM -SN BR BKN018
     FM242200 26016G26KT P6SM OVC020
     FM250100 26012KT P6SM OVC025
     FM250700 27009KT P6SM BKN025
     FM251400 29008KT P6SM SCT025 BKN040=



000
FTUS43 KILX 241700
TAFCMI
TAF
KCMI 241739Z 2418/2518 25025G35KT P6SM VCSH OVC012
      TEMPO 2418/2420 5SM -SN BR OVC009
     FM242000 25023G33KT P6SM VCSH OVC015
      TEMPO 2420/2422 OVC020
     FM242200 24018G27KT P6SM OVC020
     FM250200 25015KT P6SM OVC020
     FM250900 26012KT P6SM BKN025
     FM251700 27011KT P6SM SCT025 BKN035=



000
FTUS43 KILX 241700
TAFPIA
TAF
KPIA 241739Z 2418/2518 26017G28KT 6SM -SN BR SCT010 OVC020
      TEMPO 2418/2420 4SM -SHSN BR BKN009 OVC015
     FM242000 26015G25KT P6SM VCSH OVC020
      TEMPO 2420/2422 5SM -SHSN BR OVC015
     FM242200 26013G22KT P6SM VCSH OVC020
     FM250100 26011KT P6SM OVC025
     FM250700 27009KT P6SM BKN025
     FM251500 28008KT P6SM SCT025 BKN040=



000
FTUS43 KILX 241700
TAFDEC
TAF
KDEC 241739Z 2418/2518 26020G32KT P6SM VCSH SCT010 OVC020
      TEMPO 2418/2420 5SM -SN BR BKN012
     FM242000 26020G30KT P6SM SCT015 OVC025
      TEMPO 2420/2422 5SM -SN BR BKN015
     FM242200 26016G26KT P6SM OVC015
     FM250200 26013KT P6SM OVC025
     FM250800 27010KT P6SM BKN025
     FM251500 28009KT P6SM SCT025 BKN040=



000
FTUS43 KILX 241700
TAFBMI
TAF
KBMI 241739Z 2418/2518 26023G33KT 4SM -SN BR OVC009
      TEMPO 2418/2420 2SM -SN BR SCT009 OVC015
     FM242000 26021G31KT 6SM -SN BR OVC012
      TEMPO 2420/2422 4SM -SHSN BR OVC020
     FM242200 26018G28KT P6SM OVC015
     FM250200 26015KT P6SM OVC020
     FM250800 27012KT P6SM BKN020
     FM251600 28012KT P6SM SCT025 BKN035=



000
FTUS43 KILX 241700 AAB
TAFDEC
TAF AMD
KDEC 241705Z 2417/2512 26021G32KT P6SM VCSH SCT010 OVC020
      TEMPO 2417/2419 5SM -SN BR BKN012
     FM241900 27020G30KT P6SM SCT015 OVC025
      TEMPO 2419/2421 5SM -SN BR BKN015
     FM242100 25016G26KT P6SM OVC015
     FM250200 26011KT P6SM OVC020=



000
FTUS43 KILX 241700 AAD
TAFSPI
TAF AMD
KSPI 241704Z 2417/2512 26021G32KT P6SM VCSH SCT015 OVC025
      TEMPO 2417/2419 6SM -SN BR BKN015 OVC020
     FM241900 28020G32KT P6SM OVC025
      TEMPO 2419/2421 5SM -SN BKN018
     FM242100 25016G26KT P6SM OVC020
     FM250100 26011KT P6SM OVC020=



000
FTUS43 KILX 241700 AAD
TAFBMI
TAF AMD
KBMI 241703Z 2417/2512 26022G32KT 4SM -SN BR OVC010
      TEMPO 2417/2419 1 1/2SM -SN BR OVC007
     FM241900 27022G32KT 6SM -SN BR OVC010
      TEMPO 2419/2422 5SM -SHSN BR OVC020
     FM242200 25018G28KT P6SM OVC015
     FM250100 25015KT P6SM OVC015=



000
FTUS43 KILX 241700 AAF
TAFPIA
TAF AMD
KPIA 241702Z 2417/2512 26017G26KT 4SM -SN BR SCT010 OVC020
      TEMPO 2417/2419 6SM -SN BR BKN009 OVC015
     FM241900 26017G27KT P6SM -SN OVC015
     FM250100 25010KT P6SM OVC015=



000
FTUS43 KILX 241600 AAE
TAFPIA
TAF AMD
KPIA 241628Z 2416/2512 26018G27KT 4SM -SN BR SCT010 OVC016
      TEMPO 2416/2418 2SM -SN BR BKN009 OVC015
     FM241800 26017G27KT P6SM -SN OVC015
     FM250100 25010KT P6SM OVC015=



000
FTUS43 KILX 241500 AAC
TAFSPI
TAF AMD
KSPI 241559Z 2416/2512 27021G33KT P6SM VCSH SCT015 OVC025
      TEMPO 2416/2418 6SM -SN BR BKN015 OVC020
     FM241800 28020G32KT P6SM OVC015
     FM242100 25016G26KT P6SM OVC020
     FM250100 26011KT P6SM OVC020=



000
FTUS43 KILX 241500 AAD
TAFPIA
TAF AMD
KPIA 241556Z 2416/2512 27020G29KT 1SM -SN BR BKN012 OVC018
      TEMPO 2416/2418 3SM -SN BR BKN009 OVC015
     FM241800 26017G27KT P6SM -SN OVC015
     FM250100 25010KT P6SM OVC015=



000
FTUS43 KILX 241500 AAC
TAFBMI
TAF AMD
KBMI 241546Z 2416/2512 26020G32KT 4SM -SN BR OVC008
      TEMPO 2416/2418 1SM -SN BR OVC005
     FM241800 27022G32KT 6SM -SN BR OVC008
      TEMPO 2418/2420 4SM -SHSN BR OVC012
     FM242200 25018G28KT P6SM OVC015
     FM250100 25015KT P6SM OVC015=



000
FTUS43 KILX 241500 AAC
TAFPIA
TAF AMD
KPIA 241544Z 2416/2512 27020G29KT 3SM -SN BR BKN012 OVC018
      TEMPO 2416/2418 1SM -SN BR BKN009 OVC015
     FM241800 26017G27KT P6SM -SN OVC015
     FM250100 25010KT P6SM OVC015=



000
FTUS43 KILX 241500 AAB
TAFBMI
TAF AMD
KBMI 241514Z 2415/2512 26020G30KT 3SM -SN BR OVC007
      TEMPO 2415/2416 1SM -SN BR OVC005
     FM241600 27022G32KT 4SM BR VCSH OVC008
      TEMPO 2416/2418 6SM BR OVC012
     FM242200 25018G28KT P6SM OVC015
     FM250100 25015KT P6SM OVC015=



000
FTUS43 KILX 241500 AAB
TAFCMI
TAF AMD
KCMI 241513Z 2415/2512 26025G37KT P6SM VCSH BKN012 OVC018
      TEMPO 2415/2417 5SM -SN BR OVC009
     FM241700 27024G34KT P6SM OVC010
      TEMPO 2417/2419 OVC007
     FM242200 24016G26KT P6SM OVC015
     FM250200 25013KT P6SM OVC020=



000
FTUS43 KILX 241500 AAB
TAFSPI
TAF AMD
KSPI 241512Z 2415/2512 27022G29KT P6SM OVC015
      TEMPO 2415/2417 5SM BR
     FM241700 28020G32KT P6SM OVC015
     FM242100 25016G26KT P6SM OVC020
     FM250100 26011KT P6SM OVC020=



000
FTUS43 KILX 241500 AAB
TAFPIA
TAF AMD
KPIA 241511Z 2415/2512 27018G29KT 4SM -SN BR SCT006 OVC015
      TEMPO 2415/2417 2SM -SN BR OVC008
     FM241700 26017G27KT P6SM OVC015
     FM250100 25010KT P6SM OVC015=



000
FTUS43 KILX 241300 AAA
TAFDEC
TAF AMD
KDEC 241316Z 2413/2512 28022G32KT 5SM -SN BR OVC010
     FM241500 28022G32KT P6SM OVC015
     FM242100 25016G26KT P6SM OVC015
     FM250200 26011KT P6SM OVC020=



000
FTUS43 KILX 241300 AAA
TAFBMI
TAF AMD
KBMI 241316Z 2413/2512 27017G27KT 3SM -SN BR OVC007
      TEMPO 2413/2415 1SM -SN BR OVC005
     FM241600 27022G32KT P6SM OVC012
      TEMPO 2416/2418 OVC007
     FM242200 25018G28KT P6SM OVC015
     FM250100 25015KT P6SM OVC015=



000
FTUS43 KILX 241300 AAA
TAFCMI
TAF AMD
KCMI 241316Z 2413/2512 27024G34KT P6SM VCSH OVC010
      TEMPO 2413/2416 4SM -SN OVC007
     FM241600 27024G34KT P6SM OVC010
      TEMPO 2416/2418 OVC007
     FM242200 24016G26KT P6SM OVC015
     FM250200 25013KT P6SM OVC020=



000
FTUS43 KILX 241300 AAA
TAFSPI
TAF AMD
KSPI 241316Z 2413/2512 27018G28KT 4SM -SN BR OVC015
     FM241400 28020G32KT P6SM OVC015
     FM242100 25016G26KT P6SM OVC020
     FM250100 26011KT P6SM OVC020=



000
FTUS43 KILX 241300 AAA
TAFPIA
TAF AMD
KPIA 241316Z 2413/2512 28015G25KT 3SM -SN BR OVC006
      TEMPO 2413/2415 1SM -SN BR
     FM241600 26017G27KT P6SM OVC015
     FM250100 25010KT P6SM OVC015=



000
FTUS43 KILX 241100 CCA
TAFDEC
TAF COR
KDEC 241137Z 2412/2512 28022G32KT 5SM -RASN BR OVC015
      TEMPO 2412/2414 2SM -SN OVC008
     FM241400 28022G32KT P6SM OVC015
     FM242100 25016G26KT P6SM OVC015
     FM250200 26011KT P6SM OVC020=



000
FTUS43 KILX 241100 CCA
TAFSPI
TAF COR
KSPI 241136Z 2412/2512 28018G28KT 3SM -SN BR OVC012
      TEMPO 2412/2414 1SM -SN OVC008
     FM241400 28020G32KT P6SM OVC015
     FM242100 25016G26KT P6SM OVC020
     FM250100 26011KT P6SM OVC020=



000
FTUS43 KILX 241100
TAFSPI
TAF
KSPI 241126Z 2412/2512 28018G28KT 6SM -RASN BR OVC012
     FM241400 28020G32KT P6SM OVC015
     FM242100 25016G26KT P6SM OVC020
     FM250100 26011KT P6SM OVC020=



000
FTUS43 KILX 241100
TAFPIA
TAF
KPIA 241126Z 2412/2512 28015G25KT 4SM -RASN BR OVC006
     FM241600 26017G27KT P6SM OVC015
     FM250100 25010KT P6SM OVC015=



000
FTUS43 KILX 241100
TAFDEC
TAF
KDEC 241126Z 2412/2512 28022G32KT 5SM -RASN BR OVC015
     FM241400 28022G32KT P6SM OVC015
     FM242100 25016G26KT P6SM OVC015
     FM250200 26011KT P6SM OVC020=



000
FTUS43 KILX 241100
TAFCMI
TAF
KCMI 241126Z 2412/2512 27024G34KT 6SM -RASN BR VCSH OVC007
      TEMPO 2412/2414 OVC005
     FM241600 27024G34KT P6SM OVC010
      TEMPO 2416/2418 OVC007
     FM242200 24016G26KT P6SM OVC015
     FM250200 25013KT P6SM OVC020=



000
FTUS43 KILX 241100
TAFBMI
TAF
KBMI 241126Z 2412/2512 28017G27KT 3SM -RASN BR OVC007
     FM241600 27022G32KT P6SM OVC012
      TEMPO 2416/2418 OVC007
     FM242200 25018G28KT P6SM OVC015
     FM250100 25015KT P6SM OVC015=



000
FTUS43 KILX 240800 AAA
TAFCMI
TAF AMD
KCMI 240855Z 2409/2506 22012KT 1 1/2SM -SHRA BR OVC002
     FM241100 27016G25KT 4SM BR VCSH OVC005
     FM241600 27024G34KT 2SM -RASN BR OVC010
     FM241800 24024G34KT P6SM -SN OVC015
     FM242200 24016G26KT P6SM OVC015
     FM250200 25013KT P6SM OVC020=



000
FTUS43 KILX 240800 AAA
TAFSPI
TAF AMD
KSPI 240855Z 2409/2506 28013G23KT 6SM -RADZ BR OVC005
     FM241400 28020G32KT 3SM -SN BR OVC007
     FM241800 26020G30KT P6SM -SN OVC015
     FM242100 25016G26KT P6SM OVC020
     FM250000 25013KT P6SM OVC020=



000
FTUS43 KILX 240800 AAA
TAFDEC
TAF AMD
KDEC 240855Z 2409/2506 23010KT 1/2SM -SHRA FG OVC002
     FM241000 28015G25KT 4SM BR VCSH OVC005
     FM241500 28022G34KT 3SM -RASN BR OVC010
     FM241800 25020G32KT P6SM -SN OVC015
     FM242100 24016G26KT P6SM OVC015
     FM250200 25013KT P6SM OVC020=



000
FTUS43 KILX 240800 AAA
TAFPIA
TAF AMD
KPIA 240855Z 2409/2506 28012G22KT 6SM -RADZ BR OVC004
     FM241300 28017G26KT 1SM -SN BR OVC004
     FM241800 26020G30KT P6SM -SN OVC015
     FM242100 25016G26KT P6SM OVC015
     FM250100 25012KT P6SM OVC015=



000
FTUS43 KILX 240800 AAA
TAFBMI
TAF AMD
KBMI 240855Z 2409/2506 26011KT 1 1/2SM -RA BR OVC002
     FM241000 28015G22KT 3SM -RADZ BR OVC004
     FM241500 28022G32KT 1 1/2SM -SN BR OVC004
     FM241900 26022G34KT P6SM -SN OVC010
     FM242200 25018G28KT P6SM OVC015
     FM250200 25016KT P6SM OVC015=



000
FTUS43 KILX 240500
TAFSPI
TAF
KSPI 240532Z 2406/2506 23008KT 5SM BR OVC003
     FM240700 24010KT 1SM -DZ BR OVC002
     FM240900 26013G21KT 3SM -RADZ BR OVC004
     FM241400 26020G32KT 3SM -SN BR OVC007
     FM241800 26020G30KT P6SM -SN OVC015
     FM242100 25016G26KT P6SM OVC020
     FM250000 25013KT P6SM OVC020=



000
FTUS43 KILX 240500
TAFDEC
TAF
KDEC 240532Z 2406/2506 22009KT 4SM HZ OVC003
     FM240700 22010KT 4SM -SHRA BR OVC003
     FM241000 25015G22KT 4SM BR VCSH OVC005
     FM241500 26022G34KT 3SM -RASN BR OVC010
     FM241800 25020G32KT P6SM -SN OVC015
     FM242100 24016G26KT P6SM OVC015
     FM250200 25013KT P6SM OVC020=



000
FTUS43 KILX 240500
TAFPIA
TAF
KPIA 240532Z 2406/2506 23008KT 1/2SM -RADZ FG VV002
      TEMPO 2406/2407 1SM -DZ BR OVC003
     FM240700 24012G18KT 2SM -RADZ BR OVC003
     FM241300 26017G26KT 1SM -SN BR OVC004
     FM241800 26020G30KT P6SM -SN OVC015
     FM242100 25016G26KT P6SM OVC015
     FM250100 25012KT P6SM OVC015=



000
FTUS43 KILX 240500
TAFBMI
TAF
KBMI 240532Z 2406/2506 23010KT 1/4SM -RA FG OVC001
     FM240700 24011KT 1 1/2SM -DZ BR OVC002
     FM241000 26015G22KT 3SM -RADZ BR OVC004
     FM241500 26022G32KT 1 1/2SM -SN BR OVC004
     FM241900 26022G34KT P6SM -SN OVC010
     FM242200 25018G28KT P6SM OVC015
     FM250200 25016KT P6SM OVC015=



000
FTUS43 KILX 240500
TAFCMI
TAF
KCMI 240532Z 2406/2506 22011KT 3SM BR OVC002
     FM240800 21012KT 4SM -SHRA BR OVC003
     FM241100 23016G23KT 4SM BR VCSH OVC005
     FM241600 25024G34KT 2SM -RASN BR OVC010
     FM241800 24024G34KT P6SM -SN OVC015
     FM242200 24016G26KT P6SM OVC015
     FM250200 25013KT P6SM OVC020=



000
FTUS43 KILX 240500 AAE
TAFBMI
TAF AMD
KBMI 240513Z 2405/2424 23010KT 1/4SM -RA FG OVC001
     FM240700 23011KT 1 1/2SM -DZ BR OVC002
     FM241000 26015G22KT 3SM -RADZ BR OVC007
     FM241500 26022G32KT 1 1/2SM -SN BR OVC007
     FM241900 26022G34KT 6SM -SN OVC010=



000
FTUS43 KILX 240400 AAD
TAFPIA
TAF AMD
KPIA 240437Z 2405/2424 21005KT 1/2SM -DZ FG VV002
     FM240600 27012G17KT 3SM -RADZ BR OVC004
     FM241400 26017G26KT 1 1/2SM -SN BR OVC007
     FM241800 26020G30KT 6SM -SN OVC015=



000
FTUS43 KILX 240400 AAC
TAFPIA
TAF AMD
KPIA 240436Z 2405/2424 21005KT 1/2SM -DZ FG VV002
     FM240900 27012G17KT 3SM -RADZ BR OVC007
     FM241400 26017G26KT 1 1/2SM -SN BR OVC007
     FM241800 26020G30KT 6SM -SN OVC015=



000
FTUS43 KILX 240400 AAD
TAFBMI
TAF AMD
KBMI 240433Z 2405/2424 23009KT 1/2SM -RA FG OVC001
     FM240700 23011KT 3SM -SHRA BR OVC002
     FM241000 26015G22KT 3SM -RADZ BR OVC007
     FM241500 26022G32KT 1 1/2SM -SN BR OVC007
     FM241900 26022G34KT 6SM -SN OVC010=



000
FTUS43 KILX 240300 AAA
TAFDEC
TAF AMD
KDEC 240321Z 2403/2424 22006KT 4SM -RADZ BR BKN004 OVC010
     FM240500 17010KT 2SM -DZ BR OVC004
     FM240700 22010KT 4SM -SHRA BR OVC004
     FM241000 25015G22KT 4SM BR VCSH OVC007
     FM241500 26018G30KT 3SM -RASN BR OVC014
     FM241800 25020G34KT P6SM VCSH OVC020=



000
FTUS43 KILX 240300 AAC
TAFBMI
TAF AMD
KBMI 240316Z 2403/2424 20006KT 3/4SM -RA BR OVC001
     FM240700 23011KT 3SM -SHRA BR OVC002
     FM241000 26015G22KT 3SM -RADZ BR OVC007
     FM241500 26022G32KT 1 1/2SM -SN BR OVC007
     FM241900 26022G34KT 6SM -SN OVC010=



000
FTUS43 KILX 240200 AAB
TAFPIA
TAF AMD
KPIA 240231Z 2403/2424 18004KT 2SM -RA BR OVC003
     FM240400 20010KT 1 1/2SM -DZ BR OVC003
     FM240900 27012G17KT 3SM -RADZ BR OVC007
     FM241400 26017G26KT 1 1/2SM -SN BR OVC007
     FM241800 26020G30KT 6SM -SN OVC015=



000
FTUS43 KILX 240200 AAA
TAFCMI
TAF AMD
KCMI 240231Z 2403/2424 16006KT 4SM RA BR OVC003
     FM240800 21012KT 4SM -SHRA BR OVC004
     FM241100 23016G23KT 4SM BR VCSH OVC007
     FM241600 25022G32KT 2SM -RASN BR OVC012
     FM241800 24024G35KT P6SM -SN OVC015=



000
FTUS43 KILX 240200 AAB
TAFBMI
TAF AMD
KBMI 240230Z 2403/2424 18006KT 2SM -RA BR BKN003 OVC007
     FM240700 23011KT 3SM -SHRA BR OVC002
     FM241000 26015G22KT 3SM -RADZ BR OVC007
     FM241500 26022G32KT 1 1/2SM -SN BR OVC007
     FM241900 26022G34KT 6SM -SN OVC010=



000
FTUS43 KILX 240100 AAA
TAFPIA
TAF AMD
KPIA 240143Z 2402/2424 17005KT 4SM -RA BR OVC004
     FM240400 20010KT 4SM -RADZ BR OVC004
     FM240900 27012G17KT 3SM -RADZ BR OVC007
     FM241400 26017G26KT 1 1/2SM -SN BR OVC007
     FM241800 26020G30KT 6SM -SN OVC015=



000
FTUS43 KILX 240100 AAA
TAFBMI
TAF AMD
KBMI 240141Z 2402/2424 17006KT 3SM -RA BR OVC003
     FM240700 23011KT 3SM -SHRA BR OVC002
     FM241000 26015G22KT 3SM -RADZ BR OVC007
     FM241500 26022G32KT 1 1/2SM -SN BR OVC007
     FM241900 26022G34KT 6SM -SN OVC010=



000
FTUS43 KILX 240100 AAA
TAFSPI
TAF AMD
KSPI 240138Z 2402/2424 15008KT 6SM -RA BR OVC006
     FM240300 17009KT 6SM -RADZ BR OVC004
     FM240600 22010KT 4SM -DZ BR OVC004
     FM240900 26013G21KT 3SM -RADZ BR OVC007
     FM241400 26019G29KT 3SM -SN BR OVC014
     FM241800 26020G32KT P6SM VCSH OVC020=



000
FTUS43 KILX 232300
TAFCMI
TAF
KCMI 232340Z 2400/2424 12010KT 4SM RA BR OVC003
     FM240200 17012KT 2SM -SHRA BR OVC004
     FM240800 21012KT 4SM -SHRA BR OVC004
     FM241100 23016G23KT 4SM BR VCSH OVC007
     FM241600 25022G32KT 2SM -RASN BR OVC012
     FM241800 24024G35KT P6SM -SN OVC015=



000
FTUS43 KILX 232300
TAFBMI
TAF
KBMI 232340Z 2400/2424 14011KT 3SM RA BR OVC003
     FM240100 17010KT 2SM RA BR OVC004
     FM240700 23011KT 4SM -SHRA BR OVC004
     FM241000 26015G22KT 3SM -RADZ BR OVC007
     FM241500 26022G32KT 1 1/2SM -SN BR OVC007
     FM241900 26022G34KT 6SM -SN OVC010=



000
FTUS43 KILX 232300
TAFDEC
TAF
KDEC 232340Z 2400/2424 14009KT 4SM RA OVC005
     FM240100 17010KT 2SM RA BR OVC004
     FM240700 22010KT 4SM -SHRA BR OVC004
     FM241000 25015G22KT 4SM BR VCSH OVC007
     FM241500 26018G30KT 3SM -RASN BR OVC014
     FM241800 25020G34KT P6SM VCSH OVC020=



000
FTUS43 KILX 232300
TAFPIA
TAF
KPIA 232340Z 2400/2424 14007KT 4SM -RA BR OVC007
     FM240100 17008KT 2SM RA BR OVC004
     FM240600 24010KT 4SM -SHRA BR OVC007
     FM240900 27012G17KT 3SM -RADZ BR OVC007
     FM241400 26017G26KT 1 1/2SM -SN BR OVC007
     FM241800 26020G30KT 6SM -SN OVC015=



000
FTUS43 KILX 232300
TAFSPI
TAF
KSPI 232340Z 2400/2424 15006KT 6SM -RA BR OVC006
     FM240100 17009KT 2SM RA BR OVC004
     FM240600 22010KT 4SM -SHRA BR OVC004
     FM240900 26013G21KT 3SM -RADZ BR OVC007
     FM241400 26019G29KT 3SM -SN BR OVC014
     FM241800 26020G32KT P6SM VCSH OVC020=



000
FTUS43 KILX 232300 AAC
TAFSPI
TAF AMD
KSPI 232305Z 2323/2418 15008KT 6SM -RA BR OVC006
      TEMPO 2323/2401 2SM RA BR OVC005
     FM240100 17009KT 2SM RA BR OVC004
     FM240600 22010KT 4SM -SHRA BR OVC004
     FM240900 26013G21KT 3SM -RADZ BR OVC007
     FM241400 26019G29KT 3SM -SN BR OVC014=



000
FTUS43 KILX 232200 AAC
TAFCMI
TAF AMD
KCMI 232208Z 2322/2418 13012G17KT 3SM -RA BR OVC006
      TEMPO 2322/2402 1 1/2SM RA BR OVC003
     FM240200 17012KT 2SM SHRA BR OVC004
     FM240800 21012KT 4SM -SHRA BR OVC004
     FM241100 23016G23KT 4SM BR VCSH OVC007
     FM241600 25022G32KT 2SM -RASN BR OVC012=



000
FTUS43 KILX 232200 AAB
TAFSPI
TAF AMD
KSPI 232207Z 2322/2418 15012G16KT 5SM -RA BR OVC008
      TEMPO 2322/2401 2SM RA BR OVC005
     FM240100 17009KT 2SM RA BR OVC004
     FM240600 22010KT 4SM -SHRA BR OVC004
     FM240900 26013G21KT 3SM -RADZ BR OVC007
     FM241400 26019G29KT 3SM -SN BR OVC014=



000
FTUS43 KILX 232200 AAB
TAFSPI
TAF AMD
KSPI 232207Z 2322/2418 15012G16KT 5SM -RA BR OVC008
      TEMPO 2322/2401 2SM RA BR OVC005
     FM240100 17009KT 2SM RA BR OVC004
     FM240600 22010KT 4SM -SHRA BR OVC004
     FM240900 26013G21KT 3SM -RADZ BR OVC007
     FM241400 26019G29KT 3SM -SN BR OVC014=



000
FTUS43 KILX 232200 AAB
TAFPIA
TAF AMD
KPIA 232206Z 2322/2418 15010KT 4SM -RA BR BKN006 OVC010
      TEMPO 2322/2401 2SM SHRA BR OVC005
     FM240100 17008KT 2SM RA BR OVC004
     FM240600 24010KT 4SM -SHRA BR OVC007
     FM240900 27012G17KT 3SM -RADZ BR OVC007
     FM241400 26017G26KT 1SM -SN BR OVC007=



000
FTUS43 KILX 232200 AAB
TAFPIA
TAF AMD
KPIA 232206Z 2322/2418 15010KT 4SM -RA BR BKN006 OVC010
      TEMPO 2322/2401 2SM SHRA BR OVC005
     FM240100 17008KT 2SM RA BR OVC004
     FM240600 24010KT 4SM -SHRA BR OVC007
     FM240900 27012G17KT 3SM -RADZ BR OVC007
     FM241400 26017G26KT 1SM -SN BR OVC007=



000
FTUS43 KILX 232100 AAB
TAFCMI
TAF AMD
KCMI 232126Z 2321/2418 14013G20KT 3SM -RA BR OVC007
      TEMPO 2321/2401 1 1/2SM RA BR OVC004
     FM240100 17012KT 2SM SHRA BR OVC004
     FM240800 21012KT 4SM -SHRA BR OVC004
     FM241100 23016G23KT 4SM BR VCSH OVC007
     FM241600 25022G32KT 2SM -RASN BR OVC012=



000
FTUS43 KILX 232100 AAB
TAFCMI
TAF AMD
KCMI 232126Z 2321/2418 14013G20KT 3SM -RA BR OVC007
      TEMPO 2321/2401 1 1/2SM RA BR OVC004
     FM240100 17012KT 2SM SHRA BR OVC004
     FM240800 21012KT 4SM -SHRA BR OVC004
     FM241100 23016G23KT 4SM BR VCSH OVC007
     FM241600 25022G32KT 2SM -RASN BR OVC012=



000
FTUS43 KILX 232100 AAA
TAFDEC
TAF AMD
KDEC 232125Z 2321/2418 15012G17KT 3SM -RA BR OVC008
      TEMPO 2321/2401 1 1/2SM RA BR OVC005
     FM240100 17010KT 2SM RA BR OVC004
     FM240700 22010KT 4SM -SHRA BR OVC004
     FM241000 25015G22KT 4SM BR VCSH OVC007
     FM241500 26020G30KT 3SM -RASN BR OVC014=



000
FTUS43 KILX 232100 AAA
TAFDEC
TAF AMD
KDEC 232125Z 2321/2418 15012G17KT 3SM -RA BR OVC008
      TEMPO 2321/2401 1 1/2SM RA BR OVC005
     FM240100 17010KT 2SM RA BR OVC004
     FM240700 22010KT 4SM -SHRA BR OVC004
     FM241000 25015G22KT 4SM BR VCSH OVC007
     FM241500 26020G30KT 3SM -RASN BR OVC014=



000
FTUS43 KILX 232100 AAA
TAFSPI
TAF AMD
KSPI 232124Z 2321/2418 15013G18KT 3SM -RA BR BKN008 OVC014
      TEMPO 2321/2401 2SM RA BR OVC005
     FM240100 17009KT 2SM RA BR OVC004
     FM240600 22010KT 4SM -SHRA BR OVC004
     FM240900 26013G21KT 3SM -RADZ BR OVC007
     FM241400 26019G29KT 3SM -SN BR OVC014=



000
FTUS43 KILX 232100 AAA
TAFSPI
TAF AMD
KSPI 232124Z 2321/2418 15013G18KT 3SM -RA BR BKN008 OVC014
      TEMPO 2321/2401 2SM RA BR OVC005
     FM240100 17009KT 2SM RA BR OVC004
     FM240600 22010KT 4SM -SHRA BR OVC004
     FM240900 26013G21KT 3SM -RADZ BR OVC007
     FM241400 26019G29KT 3SM -SN BR OVC014=



000
FTUS43 KILX 232100 AAA
TAFBMI
TAF AMD
KBMI 232123Z 2321/2418 16015G21KT 2SM -RA BR OVC006
      TEMPO 2321/2401 1SM RA BR OVC003
     FM240100 17010KT 2SM RA BR OVC004
     FM240700 23011KT 4SM -SHRA BR OVC004
     FM241000 26015G22KT 3SM -RADZ BR OVC007
     FM241500 26022G32KT 1 1/2SM -SN BR OVC007=



000
FTUS43 KILX 232100 AAA
TAFBMI
TAF AMD
KBMI 232123Z 2321/2418 16015G21KT 2SM -RA BR OVC006
      TEMPO 2321/2401 1SM RA BR OVC003
     FM240100 17010KT 2SM RA BR OVC004
     FM240700 23011KT 4SM -SHRA BR OVC004
     FM241000 26015G22KT 3SM -RADZ BR OVC007
     FM241500 26022G32KT 1 1/2SM -SN BR OVC007=



000
FTUS43 KILX 232100 AAA
TAFPIA
TAF AMD
KPIA 232122Z 2321/2418 16010G17KT 3SM RA BR BKN006 OVC010
      TEMPO 2321/2401 2SM SHRA BR OVC005
     FM240100 17008KT 2SM RA BR OVC004
     FM240600 24010KT 4SM -SHRA BR OVC007
     FM240900 27012G17KT 3SM -RADZ BR OVC007
     FM241400 26017G26KT 1SM -SN BR OVC007=



000
FTUS43 KILX 232100 AAA
TAFPIA
TAF AMD
KPIA 232122Z 2321/2418 16010G17KT 3SM RA BR BKN006 OVC010
      TEMPO 2321/2401 2SM SHRA BR OVC005
     FM240100 17008KT 2SM RA BR OVC004
     FM240600 24010KT 4SM -SHRA BR OVC007
     FM240900 27012G17KT 3SM -RADZ BR OVC007
     FM241400 26017G26KT 1SM -SN BR OVC007=



000
FTUS43 KILX 231900 AAA
TAFCMI
TAF AMD
KCMI 231923Z 2319/2418 15014G19KT 5SM -RA BR OVC012
      TEMPO 2319/2321 2SM SHRA BR OVC008
     FM232100 15014G22KT 6SM -SHRA BR OVC010
      TEMPO 2321/2401 2SM SHRA BR OVC005
     FM240100 17012KT 2SM SHRA BR OVC004
     FM240800 21012KT 4SM -SHRA BR OVC004
     FM241100 23016G23KT 4SM BR VCSH OVC007
     FM241600 25022G32KT 2SM -RASN BR OVC012=



000
FTUS43 KILX 231700
TAFPIA
TAF
KPIA 231740Z 2318/2418 16012G18KT P6SM -RA BKN012 OVC020
      TEMPO 2318/2320 5SM -SHRA BR BKN009
     FM232000 15011G17KT 6SM -SHRA BR OVC010
      TEMPO 2320/2324 2SM SHRA BR OVC005
     FM240000 17008KT 2SM SHRA BR OVC004
     FM240600 24010KT 4SM -SHRA BR OVC007
     FM240900 27012G17KT 3SM -RADZ BR OVC007
     FM241400 26017G26KT 1SM -SN BR OVC007=



000
FTUS43 KILX 231700
TAFDEC
TAF
KDEC 231740Z 2318/2418 16013G18KT P6SM VCSH BKN015 OVC025
      TEMPO 2318/2320 4SM -SHRA BR OVC010
     FM232000 15014G19KT 6SM -SHRA BR OVC010
      TEMPO 2320/2324 2SM SHRA BR OVC005
     FM240000 17010KT 2SM SHRA BR OVC004
     FM240700 22010KT 4SM -SHRA BR OVC004
     FM241000 25015G22KT 4SM BR VCSH OVC007
     FM241500 26020G30KT 3SM -RASN BR OVC014=



000
FTUS43 KILX 231700
TAFSPI
TAF
KSPI 231740Z 2318/2418 15015G20KT P6SM -RA BKN014 OVC020
      TEMPO 2318/2320 4SM -SHRA BR BKN010
     FM232000 15013G18KT 6SM -SHRA BR OVC010
      TEMPO 2320/2324 2SM SHRA BR OVC005
     FM240000 17010KT 2SM SHRA BR OVC004
     FM240600 22010KT 4SM -SHRA BR OVC004
     FM240900 26013G21KT 3SM -RADZ BR OVC007
     FM241400 26019G29KT 3SM -SN BR OVC014=



000
FTUS43 KILX 231700
TAFCMI
TAF
KCMI 231740Z 2318/2418 15014G19KT P6SM BKN018 OVC025
      TEMPO 2318/2320 5SM -SHRA BR BKN012
     FM232000 15014G22KT 6SM -SHRA BR OVC010
      TEMPO 2320/2324 2SM SHRA BR OVC005
     FM240000 17012KT 2SM SHRA BR OVC004
     FM240800 21012KT 4SM -SHRA BR OVC004
     FM241100 23016G23KT 4SM BR VCSH OVC007
     FM241600 25022G32KT 2SM -RASN BR OVC012=



000
FTUS43 KILX 231700
TAFBMI
TAF
KBMI 231740Z 2318/2418 16016G22KT P6SM -RA BKN012 OVC020
      TEMPO 2318/2320 5SM -SHRA BR BKN009
     FM232000 16015G21KT 6SM -SHRA BR OVC010
      TEMPO 2320/2324 2SM SHRA BR OVC005
     FM240000 17010KT 2SM SHRA BR OVC004
     FM240700 23011KT 4SM -SHRA BR OVC004
     FM241000 26015G22KT 3SM -RADZ BR OVC007
     FM241500 26022G32KT 1 1/2SM -SN BR OVC007=



000
FTUS43 KILX 231700 AAC
TAFDEC
TAF AMD
KDEC 231703Z 2317/2412 16013G18KT P6SM VCSH BKN015 OVC025
      TEMPO 2317/2319 4SM -SHRA BR OVC010
     FM231900 15014G20KT 4SM -SHRA BR OVC007
     FM232200 18010KT 2SM -SHRA BR OVC004
     FM241000 25012G20KT 4SM BR VCSH OVC007=



000
FTUS43 KILX 231700 AAB
TAFCMI
TAF AMD
KCMI 231702Z 2317/2412 15014G19KT P6SM BKN018 OVC025
      TEMPO 2317/2319 5SM -SHRA BR BKN012
     FM231900 15014G22KT 4SM -SHRA BR OVC007
     FM232300 17012KT 2SM -SHRA BR OVC004
     FM241100 24012G20KT 4SM BR VCSH OVC007=



000
FTUS43 KILX 231700 AAB
TAFSPI
TAF AMD
KSPI 231701Z 2317/2412 16014G20KT P6SM -RA BKN015 OVC025
      TEMPO 2317/2319 4SM -SHRA BR BKN010
     FM231900 15013G20KT 4SM -SHRA BR OVC007
     FM232200 18010KT 2SM -SHRA BR OVC004
     FM240900 26012G20KT 4SM BR VCSH OVC007=



000
FTUS43 KILX 231700 AAB
TAFBMI
TAF AMD
KBMI 231700Z 2317/2412 16016G22KT P6SM -RA BKN012 OVC025
      TEMPO 2317/2319 5SM -SHRA BR BKN009
     FM231900 16015G22KT 5SM -SHRA BR OVC007
     FM240000 18010KT 2SM -SHRA BR OVC004
     FM241000 25013G22KT 4SM BR VCSH OVC007=



000
FTUS43 KILX 231600 AAB
TAFPIA
TAF AMD
KPIA 231659Z 2317/2412 16011G16KT P6SM VCSH BKN012 OVC025
      TEMPO 2317/2319 5SM -SHRA BR BKN009
     FM231900 15013G20KT 5SM -SHRA BR OVC007
     FM240000 18010KT 2SM -SHRA BR OVC004
     FM240800 27012G20KT 4SM BR VCSH OVC007=



000
FTUS43 KILX 231600 AAB
TAFDEC
TAF AMD
KDEC 231658Z 2317/2412 17013G18KT P6SM VCSH BKN015 OVC025
      TEMPO 2317/2319 5SM -SHRA BR OVC012
     FM231900 15014G20KT 5SM -SHRA BR OVC007
     FM232200 18010KT 2SM -SHRA BR OVC004
     FM241000 25012G20KT 4SM BR VCSH OVC007=



000
FTUS43 KILX 231400 AAA
TAFPIA
TAF AMD
KPIA 231455Z 2315/2412 17011KT P6SM VCSH SCT015 BKN050
      WS020/22040KT
      TEMPO 2315/2317 5SM -SHRA BR BKN015
     FM231700 15013G20KT 5SM -SHRA BR OVC007
     FM240000 18010KT 2SM -SHRA BR OVC004
     FM240800 27012G20KT 4SM BR VCSH OVC007=



000
FTUS43 KILX 231400 AAA
TAFSPI
TAF AMD
KSPI 231454Z 2315/2412 16013G20KT P6SM SCT015 BKN035 WS020/22040KT
      TEMPO 2315/2317 BKN014
     FM231700 15013G20KT 5SM -SHRA BR OVC007
     FM232200 18010KT 2SM -SHRA BR OVC004
     FM240900 26012G20KT 4SM BR VCSH OVC007=



000
FTUS43 KILX 231400 AAA
TAFCMI
TAF AMD
KCMI 231454Z 2315/2412 16013G18KT P6SM SCT020 BKN050 WS020/22040KT
      TEMPO 2315/2317 BKN018
     FM231700 15014G22KT 5SM -SHRA BR OVC007
     FM232300 17012KT 2SM -SHRA BR OVC004
     FM241100 24012G20KT 4SM BR VCSH OVC007=



000
FTUS43 KILX 231400 AAA
TAFBMI
TAF AMD
KBMI 231453Z 2315/2412 16015G20KT P6SM SCT015 BKN035 WS020/22040KT
      TEMPO 2315/2317 BKN012
     FM231700 16015G22KT 5SM -SHRA BR OVC007
     FM240000 18010KT 2SM -SHRA BR OVC004
     FM241000 25013G22KT 4SM BR VCSH OVC007=



000
FTUS43 KILX 231400 AAA
TAFDEC
TAF AMD
KDEC 231416Z 2314/2412 17013KT P6SM SCT015 BKN035 WS020/22040KT
      TEMPO 2314/2316 BKN014
     FM231600 15014G20KT 5SM -SHRA BR OVC007
     FM232200 18010KT 2SM -SHRA BR OVC004
     FM241000 25012G20KT 4SM BR VCSH OVC007=



000
FTUS43 KILX 231100
TAFSPI
TAF
KSPI 231120Z 2312/2412 16013KT P6SM BKN050 WS020/22040KT
     FM231500 15013G20KT 5SM -SHRA BR OVC007
     FM232200 18010KT 2SM -SHRA BR OVC004
     FM240900 26012G20KT 4SM BR VCSH OVC007=



000
FTUS43 KILX 231100
TAFPIA
TAF
KPIA 231120Z 2312/2412 16010KT P6SM BKN050 WS020/22040KT
     FM231600 15013G20KT 5SM -SHRA BR OVC007
     FM240000 18010KT 2SM -SHRA BR OVC004
     FM240800 27012G20KT 4SM BR VCSH OVC007=



000
FTUS43 KILX 231100
TAFDEC
TAF
KDEC 231120Z 2312/2412 16013KT P6SM BKN050 WS020/22040KT
     FM231500 15013G20KT 5SM -SHRA BR OVC007
     FM232200 18010KT 2SM -SHRA BR OVC004
     FM241000 25012G20KT 4SM BR VCSH OVC007=



000
FTUS43 KILX 231100
TAFBMI
TAF
KBMI 231120Z 2312/2412 17013KT P6SM BKN050 WS020/22040KT
     FM231600 16014G22KT 5SM -SHRA BR OVC007
     FM240000 18010KT 2SM -SHRA BR OVC004
     FM241000 25013G22KT 4SM BR VCSH OVC007=



000
FTUS43 KILX 231100
TAFCMI
TAF
KCMI 231120Z 2312/2412 16013KT P6SM BKN050 WS020/22040KT
     FM231600 15014G22KT 5SM -SHRA BR OVC007
     FM232300 17012KT 2SM -SHRA BR OVC004
     FM241100 24012G20KT 4SM BR VCSH OVC007=



000
FTUS43 KILX 230500 AAA
TAFBMI
TAF AMD
KBMI 230543Z 2306/2406 20015G23KT P6SM VCSH FEW009 SCT025 BKN040
      WS020/22040KT
     FM230800 18014G21KT P6SM SCT008 OVC040 WS020/22040KT
     FM231500 17016G22KT 5SM BR VCSH OVC015
     FM231800 14014G24KT 4SM -RA BR OVC007
     FM240000 12010KT 2SM -DZ BR OVC004=



000
FTUS43 KILX 230500 AAA
TAFPIA
TAF AMD
KPIA 230542Z 2306/2406 19010KT P6SM OVC012 WS020/22040KT
      TEMPO 2306/2308 OVC008
     FM231600 17013G20KT 5SM -SHRA BR OVC006
     FM240000 12010KT 2SM -DZ BR OVC004=



000
FTUS43 KILX 230500
TAFSPI
TAF
KSPI 230539Z 2306/2406 18012G22KT P6SM VCSH SCT015 OVC050
      WS020/22040KT
     FM230800 17012G18KT P6SM VCSH OVC045 WS020/22040KT
     FM231400 16014G20KT 6SM BR VCSH OVC035
     FM231700 14014G24KT 4SM -RA BR OVC008
     FM232300 13013KT 2SM -DZ BR OVC004=



000
FTUS43 KILX 230500
TAFCMI
TAF
KCMI 230539Z 2306/2406 18010KT 6SM -RA BR OVC035 WS020/22040KT
     FM230900 18013KT P6SM VCSH OVC045 WS020/22040KT
     FM231500 17013G22KT 4SM BR VCSH OVC025
     FM231800 15014G23KT 3SM -RA BR OVC008
      TEMPO 2320/2323 1SM RA OVC004
     FM240100 12013KT 2SM -DZ BR OVC004=



000
FTUS43 KILX 230500
TAFBMI
TAF
KBMI 230539Z 2306/2406 20015G25KT P6SM VCSH OVC008 WS020/22040KT
     FM230800 18014G22KT 6SM BR SCT008 OVC035 WS020/22040KT
     FM231500 17016G22KT 4SM BR VCSH OVC015
     FM231800 14014G24KT 5SM -RA BR OVC007
     FM240000 12010KT 2SM -DZ BR OVC004=



000
FTUS43 KILX 230500
TAFPIA
TAF
KPIA 230539Z 2306/2406 19010KT P6SM OVC012 WS020/22040KT
      TEMPO 2306/2308 OVC008
     FM230800 18011KT 6SM BR OVC007 WS020/22040KT
     FM231600 17013G20KT 5SM -SHRA BR OVC006
     FM240000 12010KT 2SM -DZ BR OVC004=



000
FTUS43 KILX 230500
TAFDEC
TAF
KDEC 230539Z 2306/2406 18010KT P6SM -RA BKN025 OVC035 WS020/22040KT
     FM230800 17012KT 6SM BR VCSH OVC045 WS020/22040KT
     FM231500 16014G20KT 4SM BR VCSH OVC015
     FM231800 12014KT 3SM -RA BR OVC008
      TEMPO 2319/2322 1SM RA OVC004
     FM240000 12012KT 2SM -DZ BR OVC004=



    US Dept of Commerce
    National Oceanic and Atmospheric Administration
    National Weather Service
    1325 East West Highway
    Silver Spring, MD 20910
    Page Author: NWS Internet Services Team
Disclaimer
Information Quality
Credits
Glossary
Privacy Policy
Freedom of Information Act (FOIA)
About Us
Career Opportunities